createdAt,value
2018-12-29T12:27:06.774Z,98998.30
2018-12-29T12:32:10.375Z,98995.69
2018-12-29T12:37:14.135Z,99009.05
2018-12-29T12:42:17.492Z,99006.48
2018-12-29T12:47:20.959Z,98985.88
2018-12-29T12:52:24.338Z,98979.42
2018-12-29T12:57:27.897Z,98987.61
2018-12-29T13:02:31.336Z,98988.95
2018-12-29T13:07:34.804Z,98982.05
2018-12-29T13:12:38.237Z,98973.91
2018-12-29T13:17:41.649Z,98960.16
2018-12-29T13:22:45.164Z,98954.11
2018-12-29T13:27:48.569Z,98953.66
2018-12-29T13:32:52.160Z,98951.97
2018-12-29T13:37:55.634Z,98948.09
2018-12-29T13:42:59.113Z,98943.38
2018-12-29T13:48:02.761Z,98954.14
2018-12-29T13:53:06.358Z,98951.13
2018-12-29T13:58:09.852Z,98948.98
2018-12-29T14:03:13.316Z,98933.94
2018-12-29T14:08:16.737Z,98940.82
2018-12-29T14:13:20.305Z,98938.67
2018-12-29T14:18:28.113Z,98937.83
2018-12-29T14:23:27.381Z,98936.94
2018-12-29T14:28:31.047Z,98932.20
2018-12-29T14:33:34.663Z,98933.92
2018-12-29T14:38:38.164Z,98919.75
2018-12-29T14:43:41.571Z,98917.63
2018-12-29T14:48:45.305Z,98931.38
2018-12-29T14:53:48.884Z,98927.93
2018-12-29T14:58:52.420Z,98925.77
2018-12-29T15:03:55.984Z,98931.37
2018-12-29T15:08:59.516Z,98944.26
2018-12-29T15:14:03.084Z,98952.88
2018-12-29T15:19:06.735Z,98947.69
2018-12-29T15:24:10.432Z,98951.14
2018-12-29T15:29:13.880Z,98936.97
2018-12-29T15:34:17.407Z,98934.37
2018-12-29T15:39:20.915Z,98936.54
2018-12-29T15:44:24.529Z,98936.54
2018-12-29T15:49:28.058Z,98931.80
2018-12-29T15:54:31.572Z,98931.80
2018-12-29T15:59:35.092Z,98918.06
2018-12-29T16:04:38.595Z,98895.70
2018-12-29T16:09:42.175Z,98892.28
2018-12-29T16:14:45.960Z,98887.57
2018-12-29T16:19:49.508Z,98886.27
2018-12-29T16:24:52.994Z,98873.81
2018-12-29T16:29:56.464Z,98874.22
2018-12-29T16:35:00.245Z,98880.69
2018-12-29T16:40:03.477Z,98885.41
2018-12-29T16:45:08.083Z,98868.65
2018-12-29T16:50:11.520Z,98857.06
2018-12-29T16:55:15.064Z,98857.49
2018-12-29T17:00:18.615Z,98876.39
2018-12-29T17:05:22.155Z,98862.20
2018-12-29T17:10:25.660Z,98855.78
2018-12-29T17:15:29.088Z,98850.61
2018-12-29T17:20:32.484Z,98837.72
2018-12-29T17:25:35.921Z,98840.73
2018-12-29T17:30:40.347Z,98847.61
2018-12-29T17:35:43.729Z,98833.43
2018-12-29T17:40:47.245Z,98821.39
2018-12-29T17:45:50.624Z,98809.80
2018-12-29T17:50:54.231Z,98805.92
2018-12-29T17:55:57.576Z,98809.38
2018-12-29T18:01:01.075Z,98788.33
2018-12-29T18:06:04.470Z,98787.45
2018-12-29T18:11:08.051Z,98795.18
2018-12-29T18:16:11.469Z,98777.58
2018-12-29T18:21:15.070Z,98765.09
2018-12-29T18:26:18.473Z,98744.91
2018-12-29T18:31:21.877Z,98716.60
2018-12-29T18:36:25.373Z,98698.96
2018-12-29T18:41:28.818Z,98697.25
2018-12-29T18:46:33.024Z,98680.05
2018-12-29T18:51:36.437Z,98668.88
2018-12-29T18:56:45.533Z,98677.91
2018-12-29T19:01:43.447Z,98665.89
2018-12-29T19:06:48.185Z,98686.48
2018-12-29T19:11:50.263Z,98729.86
2018-12-29T19:16:53.740Z,98744.89
2018-12-29T19:21:57.148Z,98749.61
2018-12-29T19:27:00.584Z,98761.64
2018-12-29T19:32:04.174Z,98770.23
2018-12-29T19:37:07.844Z,98748.33
2018-12-29T19:42:11.262Z,98736.30
2018-12-29T19:47:14.770Z,98732.87
2018-12-29T19:52:18.202Z,98722.53
2018-12-29T19:57:21.596Z,98722.95
2018-12-29T20:02:25.013Z,98719.50
2018-12-29T20:07:28.441Z,98708.78
2018-12-29T20:12:31.930Z,98695.88
2018-12-29T20:17:35.348Z,98661.91
2018-12-29T20:22:38.826Z,98633.55
2018-12-29T20:27:42.192Z,98595.31
2018-12-29T20:32:45.584Z,98576.80
2018-12-29T20:37:49.066Z,98559.56
2018-12-29T20:42:52.429Z,98542.35
2018-12-29T20:47:55.948Z,98525.96
2018-12-29T20:52:59.594Z,98511.33
2018-12-29T20:58:03.149Z,98521.17
2018-12-29T21:03:06.542Z,98517.34
2018-12-29T21:08:09.936Z,98515.61
2018-12-29T21:13:13.487Z,98505.33
2018-12-29T21:18:16.894Z,98502.51
2018-12-29T21:23:20.425Z,98497.00
2018-12-29T21:28:23.824Z,98493.58
2018-12-29T21:33:27.212Z,98484.17
2018-12-29T21:38:30.724Z,98482.48
2018-12-29T21:43:34.217Z,98480.77
2018-12-29T21:48:37.674Z,98476.96
2018-12-29T21:53:41.107Z,98465.80
2018-12-29T21:58:44.609Z,98454.75
2018-12-29T22:03:48.136Z,98438.90
2018-12-29T22:08:51.555Z,98431.61
2018-12-29T22:13:55.065Z,98431.17
2018-12-29T22:18:58.480Z,98423.02
2018-12-29T22:24:01.857Z,98432.44
2018-12-29T22:29:05.304Z,98410.96
2018-12-29T22:34:08.781Z,98408.80
2018-12-29T22:39:12.181Z,98399.34
2018-12-29T22:44:16.614Z,98396.34
2018-12-29T22:49:19.884Z,98413.02
2018-12-29T22:54:23.240Z,98390.71
2018-12-29T22:59:26.658Z,98378.30
2018-12-29T23:04:29.980Z,98359.80
2018-12-29T23:09:33.344Z,98349.05
2018-12-29T23:14:36.688Z,98353.25
2018-12-29T23:19:39.996Z,98351.12
2018-12-29T23:24:43.335Z,98335.45
2018-12-29T23:29:46.603Z,98340.56
2018-12-29T23:34:49.945Z,98344.83
2018-12-29T23:39:53.241Z,98331.59
2018-12-29T23:44:56.504Z,98326.52
2018-12-29T23:49:59.958Z,98323.06
2018-12-29T23:55:03.285Z,98317.41
